Aérodrome :
LOGIN :

S'inscrire | Disclaimer

   EN    FR    IT 

 










Légende :    VFR   VFR Marginal   IFR   IFR Intensif   IFR Très Intensif
Visi : 
Plafond : 
>= 8 km
>= 3000ft
5 à 8 km
1000 à 3000 ft
1500m à 5 km
500 à 1000 ft
800 à 1500m
200 à 500 ft
< 800m
< 200 ft
Symboles :   Orages  Brouillard  Fortes neiges  Fortes précipitations  Vent > 20 kt
SIGMETs :   Divers  Orages  Givrage  Turbulence  Onde Orograph.  Cendres Volcan.







- Altitude de l'aérodrome : 1046 ft
- Code IATA : NUE


EDDN - Nuremberg

DERNIER METAR :
  • 301220Z 09012KT 040V130 CAVOK 15/02 Q1013 NOSIG

METARs EXPIRÉS :
  • 301150Z 10012G23KT 060V140 CAVOK 15/02 Q1013 NOSIG
  • 301120Z 10011KT 030V130 CAVOK 15/02 Q1014 NOSIG
  • 301050Z 11013KT 050V170 CAVOK 14/01 Q1014 NOSIG
  • 301020Z 11013G23KT 070V150 CAVOK 14/02 Q1015 NOSIG
  • 300950Z 09014G24KT 060V140 9999 FEW047 14/02 Q1015 NOSIG

TAF TAF EDDN
Valide du 30 à 12h jusqu'au 01 à 12h UTC


301100Z 3012/0112 08013KT CAVOK
TEMPO 3012/3016 09015G25KT
BECMG 3016/3018 08007KT
BECMG 0108/0110 22010KT
Pas de NOTAMs connus pour ce terrain.



MET'MAP, la Météo Aéronautique d'un coup d'oeil ! - Copyright ORBIFLY Décembre 2007 - Disclaimer

ORBIFLY MET'MAP TEAM :

Programmation & Développement : Alexandra Zaïnal
Conception & Développement : Baudouin d'Aumeries
Co-Programmation & Développement : Marc-Olivier Méhu
Soutien technique & logistique : Manuel Goepfert

Contact : metmap@orbifly.com




SOURCES & CREDITS :

   NOAA